createdAt,value
2023-02-08T00:00:27.976Z,0
2023-02-08T00:01:28.032Z,0
2023-02-08T00:02:27.974Z,0
2023-02-08T00:03:27.976Z,0
2023-02-08T00:04:27.963Z,0
2023-02-08T00:05:28.000Z,0
2023-02-08T00:06:27.987Z,0
2023-02-08T00:07:27.946Z,0
2023-02-08T00:08:27.937Z,0
2023-02-08T00:09:27.959Z,0
2023-02-08T00:10:27.959Z,0
2023-02-08T00:11:27.956Z,0
2023-02-08T00:12:27.940Z,0
2023-02-08T00:13:28.000Z,0
2023-02-08T00:14:27.948Z,0
2023-02-08T00:15:27.946Z,0
2023-02-08T00:16:28.030Z,0
2023-02-08T00:17:27.945Z,0
2023-02-08T00:18:27.954Z,0
2023-02-08T00:19:27.942Z,0
2023-02-08T00:20:27.945Z,0
2023-02-08T00:21:27.959Z,0
2023-02-08T00:22:27.952Z,0
2023-02-08T00:23:27.945Z,0
2023-02-08T00:24:27.946Z,0
2023-02-08T00:25:27.941Z,0
2023-02-08T00:26:27.951Z,0
2023-02-08T00:27:27.946Z,0
2023-02-08T00:28:28.073Z,0
2023-02-08T00:29:27.961Z,0
2023-02-08T00:30:27.994Z,0
2023-02-08T00:31:28.075Z,0
2023-02-08T00:32:27.965Z,0
2023-02-08T00:33:27.954Z,0
2023-02-08T00:34:27.956Z,0
2023-02-08T00:35:28.070Z,0
2023-02-08T00:36:27.961Z,0
2023-02-08T00:37:27.962Z,0
2023-02-08T00:38:27.957Z,0
2023-02-08T00:39:27.951Z,0
2023-02-08T00:40:27.983Z,0
2023-02-08T00:41:28.153Z,0
2023-02-08T00:42:27.955Z,0
2023-02-08T00:43:27.970Z,0
2023-02-08T00:44:27.961Z,0
2023-02-08T00:45:27.970Z,0
2023-02-08T00:46:27.971Z,0
2023-02-08T00:47:27.957Z,0
2023-02-08T00:48:27.985Z,0
2023-02-08T00:49:27.962Z,0
2023-02-08T00:50:27.965Z,0
2023-02-08T00:51:27.996Z,0
2023-02-08T00:52:27.949Z,0
2023-02-08T00:53:27.935Z,0
2023-02-08T00:54:28.070Z,0
2023-02-08T00:55:27.956Z,0
2023-02-08T00:56:27.955Z,0
2023-02-08T00:57:27.948Z,0
2023-02-08T00:58:27.969Z,0
2023-02-08T00:59:28.028Z,0
2023-02-08T01:00:27.985Z,0
2023-02-08T01:01:27.971Z,0
2023-02-08T01:02:27.957Z,0
2023-02-08T01:03:27.960Z,0
2023-02-08T01:04:27.951Z,0
2023-02-08T01:05:27.954Z,0
2023-02-08T01:06:27.955Z,0
2023-02-08T01:07:27.943Z,0
2023-02-08T01:08:27.951Z,0
2023-02-08T01:09:27.956Z,0
2023-02-08T01:10:27.966Z,0
2023-02-08T01:11:27.959Z,0
2023-02-08T01:12:27.963Z,0
2023-02-08T01:13:27.961Z,0
2023-02-08T01:14:27.947Z,0
2023-02-08T01:15:27.946Z,0
2023-02-08T01:16:28.085Z,0
2023-02-08T01:17:27.937Z,0
2023-02-08T01:18:27.941Z,0
2023-02-08T01:19:27.980Z,0
2023-02-08T01:20:27.934Z,0
2023-02-08T01:21:27.945Z,0
2023-02-08T01:22:27.937Z,0
2023-02-08T01:23:27.939Z,0
2023-02-08T01:24:27.937Z,0
2023-02-08T01:25:27.962Z,0
2023-02-08T01:26:27.943Z,0
2023-02-08T01:27:27.948Z,0
2023-02-08T01:28:27.949Z,0
2023-02-08T01:29:27.935Z,0
2023-02-08T01:30:27.963Z,0
2023-02-08T01:31:28.038Z,0
2023-02-08T01:32:27.935Z,0
2023-02-08T01:33:27.957Z,0
2023-02-08T01:34:27.934Z,0
2023-02-08T01:35:27.967Z,0
2023-02-08T01:36:27.961Z,0
2023-02-08T01:37:27.936Z,0
2023-02-08T01:38:27.931Z,0
2023-02-08T01:39:27.944Z,0
2023-02-08T01:40:27.935Z,0
2023-02-08T01:41:28.192Z,0
2023-02-08T01:42:27.945Z,0
2023-02-08T01:43:27.953Z,0
2023-02-08T01:44:27.936Z,0
2023-02-08T01:45:28.050Z,0
2023-02-08T01:46:27.975Z,0
2023-02-08T01:47:27.945Z,0
2023-02-08T01:48:27.955Z,0
2023-02-08T01:49:27.953Z,0
2023-02-08T01:50:28.013Z,0
2023-02-08T01:51:27.958Z,0
2023-02-08T01:52:27.973Z,0
2023-02-08T01:53:27.960Z,0
2023-02-08T01:54:27.952Z,0
2023-02-08T01:55:27.951Z,0
2023-02-08T01:56:27.953Z,0
2023-02-08T01:57:27.962Z,0
2023-02-08T01:58:27.979Z,0
2023-02-08T01:59:27.955Z,0
2023-02-08T02:00:27.941Z,0
2023-02-08T02:01:27.989Z,0
2023-02-08T02:02:27.980Z,0
2023-02-08T02:03:27.947Z,0
2023-02-08T02:04:28.053Z,0
2023-02-08T02:05:27.954Z,0
2023-02-08T02:06:27.951Z,0
2023-02-08T02:07:27.977Z,0
2023-02-08T02:08:27.954Z,0
2023-02-08T02:09:27.969Z,0
2023-02-08T02:10:27.940Z,0
2023-02-08T02:11:27.954Z,0
2023-02-08T02:12:28.003Z,0
2023-02-08T02:13:27.963Z,0
2023-02-08T02:14:27.957Z,0
2023-02-08T02:15:28.051Z,0
2023-02-08T02:16:27.989Z,0
2023-02-08T02:17:27.966Z,0
2023-02-08T02:18:27.951Z,0
2023-02-08T02:19:27.961Z,0
2023-02-08T02:20:27.954Z,0
2023-02-08T02:21:27.968Z,0
2023-02-08T02:22:27.985Z,0
2023-02-08T02:23:27.955Z,0
2023-02-08T02:24:27.962Z,0
2023-02-08T02:25:27.954Z,0
2023-02-08T02:26:27.964Z,0
2023-02-08T02:27:27.969Z,0
2023-02-08T02:28:27.965Z,0
2023-02-08T02:29:27.933Z,0
2023-02-08T02:30:27.966Z,0
2023-02-08T02:31:27.961Z,0
2023-02-08T02:32:27.947Z,0
2023-02-08T02:33:27.933Z,0
2023-02-08T02:34:27.929Z,0
2023-02-08T02:35:27.926Z,0
2023-02-08T02:36:27.938Z,0
2023-02-08T02:37:27.958Z,0
2023-02-08T02:38:30.217Z,0
2023-02-08T02:39:27.927Z,0
2023-02-08T02:40:27.935Z,0
2023-02-08T02:41:27.939Z,0
2023-02-08T02:42:27.977Z,0
2023-02-08T02:43:27.946Z,0
2023-02-08T02:44:27.929Z,0
2023-02-08T02:45:27.930Z,0
2023-02-08T02:46:27.936Z,0
2023-02-08T02:47:27.958Z,0
2023-02-08T02:48:27.932Z,0
2023-02-08T02:49:27.940Z,0
2023-02-08T02:50:27.940Z,0
2023-02-08T02:51:27.939Z,0
2023-02-08T02:52:27.944Z,0
2023-02-08T02:53:27.934Z,0
2023-02-08T02:54:27.961Z,0
2023-02-08T02:55:27.934Z,0
2023-02-08T02:56:27.949Z,0
2023-02-08T02:57:27.942Z,0
2023-02-08T02:58:27.974Z,0
2023-02-08T02:59:27.950Z,0
2023-02-08T03:00:27.951Z,0
2023-02-08T03:01:27.988Z,0
2023-02-08T03:02:27.970Z,0
2023-02-08T03:03:27.961Z,0
2023-02-08T03:04:27.989Z,0
2023-02-08T03:05:27.951Z,0
2023-02-08T03:06:27.958Z,0
2023-02-08T03:07:27.971Z,0
2023-02-08T03:08:27.965Z,0
2023-02-08T03:09:27.952Z,0
2023-02-08T03:10:27.963Z,0
2023-02-08T03:11:27.959Z,0
2023-02-08T03:12:27.960Z,0
2023-02-08T03:13:27.977Z,0
2023-02-08T03:14:27.959Z,0
2023-02-08T03:15:27.954Z,0
2023-02-08T03:16:28.046Z,0
2023-02-08T03:17:27.968Z,0
2023-02-08T03:18:27.971Z,0
2023-02-08T03:19:27.956Z,0
2023-02-08T03:20:27.994Z,0
2023-02-08T03:21:27.942Z,0
2023-02-08T03:22:27.974Z,0
2023-02-08T03:23:27.957Z,0
2023-02-08T03:24:27.975Z,0
2023-02-08T03:25:27.968Z,0
2023-02-08T03:26:27.955Z,0
2023-02-08T03:27:27.961Z,0
2023-02-08T03:28:27.969Z,0
2023-02-08T03:29:27.958Z,0
2023-02-08T03:30:27.965Z,0
2023-02-08T03:31:28.056Z,0
2023-02-08T03:32:28.038Z,0
2023-02-08T03:33:27.970Z,0
2023-02-08T03:34:27.961Z,0
2023-02-08T03:35:27.982Z,0
2023-02-08T03:36:27.957Z,0
2023-02-08T03:37:27.968Z,0
2023-02-08T03:38:27.961Z,0
2023-02-08T03:39:27.956Z,0
2023-02-08T03:40:27.962Z,0
2023-02-08T03:41:27.952Z,0
2023-02-08T03:42:27.998Z,0
2023-02-08T03:43:27.967Z,0
2023-02-08T03:44:27.961Z,0
2023-02-08T03:45:27.957Z,0
2023-02-08T03:46:27.941Z,0
2023-02-08T03:47:27.955Z,0
2023-02-08T03:48:27.950Z,0
2023-02-08T03:49:27.955Z,0
2023-02-08T03:50:27.939Z,0
2023-02-08T03:51:27.947Z,0
2023-02-08T03:52:27.956Z,0
2023-02-08T03:53:27.947Z,0
2023-02-08T03:54:27.943Z,0
2023-02-08T03:55:27.939Z,0
2023-02-08T03:56:27.937Z,0
2023-02-08T03:57:27.981Z,0
2023-02-08T03:58:27.965Z,0
2023-02-08T03:59:27.939Z,0
2023-02-08T04:00:27.941Z,0
2023-02-08T04:01:27.951Z,0
2023-02-08T04:02:27.985Z,0
2023-02-08T04:03:27.947Z,0
2023-02-08T04:04:27.936Z,0
2023-02-08T04:05:27.947Z,0
2023-02-08T04:06:27.944Z,0
2023-02-08T04:07:27.960Z,0
2023-02-08T04:08:27.939Z,0
2023-02-08T04:09:27.946Z,0
2023-02-08T04:10:27.938Z,0
2023-02-08T04:11:27.934Z,0
2023-02-08T04:12:27.964Z,0
2023-02-08T04:13:27.954Z,0
2023-02-08T04:14:27.944Z,0
2023-02-08T04:15:27.941Z,0
2023-02-08T04:16:27.935Z,0
2023-02-08T04:17:27.946Z,0
2023-02-08T04:18:27.939Z,0
2023-02-08T04:19:27.959Z,0
2023-02-08T04:20:27.955Z,0
2023-02-08T04:21:27.952Z,0
2023-02-08T04:22:27.968Z,0
2023-02-08T04:23:27.964Z,0
2023-02-08T04:24:27.951Z,0
2023-02-08T04:25:27.951Z,0
2023-02-08T04:26:27.962Z,0
2023-02-08T04:27:27.973Z,0
2023-02-08T04:28:27.968Z,0
2023-02-08T04:29:27.957Z,0
2023-02-08T04:30:27.996Z,0
2023-02-08T04:31:28.037Z,0
2023-02-08T04:32:27.983Z,0
2023-02-08T04:33:27.953Z,0
2023-02-08T04:34:27.967Z,0
2023-02-08T04:35:27.985Z,0
2023-02-08T04:36:27.967Z,0
2023-02-08T04:37:27.973Z,0
2023-02-08T04:38:27.956Z,0
2023-02-08T04:39:27.964Z,0
2023-02-08T04:40:27.958Z,0
2023-02-08T04:41:27.969Z,0
2023-02-08T04:42:27.994Z,0
2023-02-08T04:43:27.972Z,0
2023-02-08T04:44:27.964Z,0
2023-02-08T04:45:27.964Z,0
2023-02-08T04:46:27.995Z,0
2023-02-08T04:47:27.972Z,0
2023-02-08T04:48:28.054Z,0
2023-02-08T04:49:27.978Z,0
2023-02-08T04:50:27.970Z,0
2023-02-08T04:51:27.960Z,0
2023-02-08T04:52:27.962Z,0
2023-02-08T04:53:27.968Z,0
2023-02-08T04:54:27.962Z,0
2023-02-08T04:55:27.961Z,0
2023-02-08T04:56:27.958Z,0
2023-02-08T04:57:27.969Z,0
2023-02-08T04:58:27.974Z,0
2023-02-08T04:59:27.942Z,0
2023-02-08T05:00:27.947Z,0
2023-02-08T05:01:27.991Z,0
2023-02-08T05:02:27.965Z,0
2023-02-08T05:03:27.949Z,0
2023-02-08T05:04:27.944Z,0
2023-02-08T05:05:27.956Z,0
2023-02-08T05:06:27.941Z,0
2023-02-08T05:07:27.955Z,0
2023-02-08T05:08:27.938Z,0
2023-02-08T05:09:27.936Z,0
2023-02-08T05:10:27.943Z,0
2023-02-08T05:11:27.962Z,0
2023-02-08T05:12:27.962Z,0
2023-02-08T05:13:27.960Z,0
2023-02-08T05:14:27.955Z,0
2023-02-08T05:15:27.941Z,0
2023-02-08T05:16:27.935Z,0
2023-02-08T05:17:27.955Z,0
2023-02-08T05:18:27.948Z,0
2023-02-08T05:19:27.945Z,0
2023-02-08T05:20:27.944Z,0
2023-02-08T05:21:27.944Z,0
2023-02-08T05:22:27.956Z,0
2023-02-08T05:23:27.959Z,0
2023-02-08T05:24:27.936Z,0
2023-02-08T05:25:27.943Z,0
2023-02-08T05:26:27.940Z,0
2023-02-08T05:27:27.953Z,0
2023-02-08T05:28:27.979Z,0
2023-02-08T05:29:27.938Z,0
2023-02-08T05:30:27.944Z,0
2023-02-08T05:31:28.125Z,0
2023-02-08T05:32:28.020Z,0
2023-02-08T05:33:27.962Z,0
2023-02-08T05:34:27.962Z,0
2023-02-08T05:35:27.960Z,0
2023-02-08T05:36:27.950Z,0
2023-02-08T05:37:27.960Z,0
2023-02-08T05:38:28.004Z,0
2023-02-08T05:39:27.950Z,0
2023-02-08T05:40:27.938Z,0
2023-02-08T05:41:27.953Z,0
2023-02-08T05:42:27.969Z,0
2023-02-08T05:43:27.962Z,0
2023-02-08T05:44:27.967Z,0
2023-02-08T05:45:27.945Z,0
2023-02-08T05:46:27.974Z,0
2023-02-08T05:47:27.947Z,0
2023-02-08T05:48:27.946Z,0
2023-02-08T05:49:27.938Z,0
2023-02-08T05:50:27.946Z,0
2023-02-08T05:51:27.948Z,0
2023-02-08T05:52:27.979Z,0
2023-02-08T05:53:27.946Z,0
2023-02-08T05:54:27.951Z,0
2023-02-08T05:55:27.949Z,0
2023-02-08T05:56:27.945Z,1
2023-02-08T05:57:30.801Z,1
2023-02-08T05:58:27.951Z,3
2023-02-08T05:59:27.968Z,3
2023-02-08T06:00:27.988Z,5
2023-02-08T06:01:27.954Z,7
2023-02-08T06:02:27.963Z,7
2023-02-08T06:03:27.948Z,9
2023-02-08T06:04:27.967Z,11
2023-02-08T06:05:27.959Z,14
2023-02-08T06:06:27.953Z,18
2023-02-08T06:07:27.965Z,22
2023-02-08T06:08:27.945Z,23
2023-02-08T06:09:27.951Z,29
2023-02-08T06:10:27.948Z,35
2023-02-08T06:11:27.957Z,42
2023-02-08T06:12:27.942Z,47
2023-02-08T06:13:27.955Z,55
2023-02-08T06:14:27.932Z,64
2023-02-08T06:15:27.934Z,75
2023-02-08T06:16:28.064Z,84
2023-02-08T06:17:27.939Z,95
2023-02-08T06:18:27.937Z,108
2023-02-08T06:19:27.937Z,123
2023-02-08T06:20:27.947Z,136
2023-02-08T06:21:27.943Z,152
2023-02-08T06:22:27.942Z,169
2023-02-08T06:23:27.928Z,186
2023-02-08T06:24:27.933Z,206
2023-02-08T06:25:27.929Z,226
2023-02-08T06:26:27.932Z,246
2023-02-08T06:27:27.943Z,269
2023-02-08T06:28:27.986Z,293
2023-02-08T06:29:27.928Z,317
2023-02-08T06:30:27.970Z,342
2023-02-08T06:31:28.003Z,366
2023-02-08T06:32:27.977Z,396
2023-02-08T06:33:27.935Z,423
2023-02-08T06:34:27.935Z,451
2023-02-08T06:35:27.940Z,482
2023-02-08T06:36:27.927Z,512
2023-02-08T06:37:27.952Z,545
2023-02-08T06:38:27.950Z,578
2023-02-08T06:39:27.945Z,606
2023-02-08T06:40:27.928Z,646
2023-02-08T06:41:27.949Z,678
2023-02-08T06:42:27.971Z,678
2023-02-08T06:43:27.957Z,753
2023-02-08T06:44:27.950Z,792
2023-02-08T06:45:27.984Z,829
2023-02-08T06:46:27.957Z,869
2023-02-08T06:47:27.969Z,927
2023-02-08T06:48:27.952Z,954
2023-02-08T06:49:27.951Z,1008
2023-02-08T06:50:27.948Z,1008
2023-02-08T06:51:27.958Z,1102
2023-02-08T06:52:27.956Z,1159
2023-02-08T06:53:27.959Z,1218
2023-02-08T06:54:27.943Z,1260
2023-02-08T06:55:27.959Z,1314
2023-02-08T06:56:27.952Z,1356
2023-02-08T06:57:27.969Z,1424
2023-02-08T06:58:27.974Z,1504
2023-02-08T06:59:27.952Z,1587
2023-02-08T07:00:27.933Z,1587
2023-02-08T07:01:28.028Z,1808
2023-02-08T07:02:28.056Z,1968
2023-02-08T07:03:27.951Z,2169
2023-02-08T07:04:27.951Z,2263
2023-02-08T07:05:27.951Z,2372
2023-02-08T07:06:27.957Z,2455
2023-02-08T07:07:27.961Z,2510
2023-02-08T07:08:27.953Z,2609
2023-02-08T07:09:27.955Z,2757
2023-02-08T07:10:27.944Z,2750
2023-02-08T07:11:27.956Z,2827
2023-02-08T07:12:27.954Z,2689
2023-02-08T07:13:27.979Z,2790
2023-02-08T07:14:27.961Z,2720
2023-02-08T07:15:27.953Z,2753
2023-02-08T07:16:28.101Z,2794
2023-02-08T07:17:27.966Z,2635
2023-02-08T07:18:27.950Z,2558
2023-02-08T07:19:27.935Z,2619
2023-02-08T07:20:27.962Z,2501
2023-02-08T07:21:27.954Z,2680
2023-02-08T07:22:27.955Z,2829
2023-02-08T07:23:27.950Z,2814
2023-02-08T07:24:27.948Z,2903
2023-02-08T07:25:27.946Z,2803
2023-02-08T07:26:27.940Z,3207
2023-02-08T07:27:27.951Z,3094
2023-02-08T07:28:27.950Z,3146
2023-02-08T07:29:27.944Z,3205
2023-02-08T07:30:28.031Z,3046
2023-02-08T07:31:28.009Z,3098
2023-02-08T07:32:27.949Z,3303
2023-02-08T07:33:27.938Z,3127
2023-02-08T07:34:27.936Z,3338
2023-02-08T07:35:27.945Z,3999
2023-02-08T07:36:27.946Z,3544
2023-02-08T07:37:27.949Z,3492
2023-02-08T07:38:27.939Z,3608
2023-02-08T07:39:27.946Z,4126
2023-02-08T07:40:28.052Z,3754
2023-02-08T07:41:27.930Z,3760
2023-02-08T07:42:27.971Z,3760
2023-02-08T07:43:27.955Z,3820
2023-02-08T07:44:27.937Z,3881
2023-02-08T07:45:27.953Z,3927
2023-02-08T07:46:27.967Z,3996
2023-02-08T07:47:27.953Z,3883
2023-02-08T07:48:27.937Z,4045
2023-02-08T07:49:27.939Z,3909
2023-02-08T07:50:27.942Z,4005
2023-02-08T07:51:27.945Z,4051
2023-02-08T07:52:27.954Z,4366
2023-02-08T07:53:27.936Z,4497
2023-02-08T07:54:27.943Z,5065
2023-02-08T07:55:27.983Z,4243
2023-02-08T07:56:27.959Z,4615
2023-02-08T07:57:27.962Z,4445
2023-02-08T07:58:27.996Z,5105
2023-02-08T07:59:27.953Z,4408
2023-02-08T08:00:27.944Z,4613
2023-02-08T08:01:27.969Z,4760
2023-02-08T08:02:27.970Z,5282
2023-02-08T08:03:27.964Z,5527
2023-02-08T08:04:27.951Z,6488
2023-02-08T08:05:27.955Z,5863
2023-02-08T08:06:27.963Z,6036
2023-02-08T08:07:27.959Z,5249
2023-02-08T08:08:27.960Z,5936
2023-02-08T08:09:27.959Z,5063
2023-02-08T08:10:27.950Z,5063
2023-02-08T08:11:27.936Z,8816
2023-02-08T08:12:27.978Z,5806
2023-02-08T08:13:27.964Z,5920
2023-02-08T08:14:27.946Z,5708
2023-02-08T08:15:27.956Z,5365
2023-02-08T08:16:27.999Z,7241
2023-02-08T08:17:29.830Z,5124
2023-02-08T08:18:27.956Z,5227
2023-02-08T08:19:27.953Z,4976
2023-02-08T08:20:27.955Z,4976
2023-02-08T08:21:27.954Z,4711
2023-02-08T08:22:27.967Z,5306
2023-02-08T08:23:27.946Z,4497
2023-02-08T08:24:27.945Z,4624
2023-02-08T08:25:27.957Z,4609
2023-02-08T08:26:27.963Z,4373
2023-02-08T08:27:27.970Z,4676
2023-02-08T08:28:28.162Z,4333
2023-02-08T08:29:27.963Z,4547
2023-02-08T08:30:27.997Z,4244
2023-02-08T08:31:28.105Z,4182
2023-02-08T08:32:28.013Z,4425
2023-02-08T08:33:27.961Z,4407
2023-02-08T08:34:27.973Z,4421
2023-02-08T08:35:27.973Z,4185
2023-02-08T08:36:27.952Z,4119
2023-02-08T08:37:27.950Z,3994
2023-02-08T08:38:27.957Z,4150
2023-02-08T08:39:27.942Z,4173
2023-02-08T08:40:27.940Z,4243
2023-02-08T08:41:27.935Z,4453
2023-02-08T08:42:27.968Z,4453
2023-02-08T08:43:27.965Z,4292
2023-02-08T08:44:27.942Z,4346
2023-02-08T08:45:27.943Z,4346
2023-02-08T08:46:28.012Z,3837
2023-02-08T08:47:27.954Z,4156
2023-02-08T08:48:27.943Z,3944
2023-02-08T08:49:27.934Z,4154
2023-02-08T08:50:27.945Z,3835
2023-02-08T08:51:27.944Z,4012
2023-02-08T08:52:27.951Z,5105
2023-02-08T08:53:27.956Z,11488
2023-02-08T08:54:27.945Z,12260
2023-02-08T08:55:27.966Z,12730
2023-02-08T08:56:27.945Z,12519
2023-02-08T08:57:27.959Z,11879
2023-02-08T08:58:27.950Z,8887
2023-02-08T08:59:27.950Z,12144
2023-02-08T09:00:27.939Z,12176
2023-02-08T09:01:28.046Z,12356
2023-02-08T09:02:27.949Z,12537
2023-02-08T09:03:27.961Z,12979
2023-02-08T09:04:27.940Z,12987
2023-02-08T09:05:27.943Z,12904
2023-02-08T09:06:27.944Z,12861
2023-02-08T09:07:27.948Z,12863
2023-02-08T09:08:27.938Z,12979
2023-02-08T09:09:27.931Z,12345
2023-02-08T09:10:27.949Z,12989
2023-02-08T09:11:27.932Z,13748
2023-02-08T09:12:27.992Z,13731
2023-02-08T09:13:27.969Z,13543
2023-02-08T09:14:27.938Z,13910
2023-02-08T09:15:28.038Z,14004
2023-02-08T09:16:28.018Z,13189
2023-02-08T09:17:27.960Z,13394
2023-02-08T09:18:27.954Z,13864
2023-02-08T09:19:27.959Z,13282
2023-02-08T09:20:27.934Z,13077
2023-02-08T09:21:27.945Z,12994
2023-02-08T09:22:27.958Z,13488
2023-02-08T09:23:27.959Z,13438
2023-02-08T09:24:27.957Z,13431
2023-02-08T09:25:27.949Z,12080
2023-02-08T09:26:27.995Z,13488
2023-02-08T09:27:27.966Z,13350
2023-02-08T09:28:27.970Z,13359
2023-02-08T09:29:27.947Z,13820
2023-02-08T09:30:27.951Z,13820
2023-02-08T09:31:28.041Z,13095
2023-02-08T09:32:27.964Z,14117
2023-02-08T09:33:27.951Z,12605
2023-02-08T09:34:27.973Z,13525
2023-02-08T09:35:27.963Z,13925
2023-02-08T09:36:27.952Z,13899
2023-02-08T09:37:27.963Z,13932
2023-02-08T09:38:27.949Z,14043
2023-02-08T09:39:27.955Z,13997
2023-02-08T09:40:27.937Z,13997
2023-02-08T09:41:27.957Z,14482
2023-02-08T09:42:28.000Z,14482
2023-02-08T09:43:27.966Z,14424
2023-02-08T09:44:27.980Z,14424
2023-02-08T09:45:27.952Z,12224
2023-02-08T09:46:28.041Z,14135
2023-02-08T09:47:27.960Z,8723
2023-02-08T09:48:27.956Z,14246
2023-02-08T09:49:27.957Z,11577
2023-02-08T09:50:27.935Z,14804
2023-02-08T09:51:27.952Z,15506
2023-02-08T09:52:27.964Z,9381
2023-02-08T09:53:27.957Z,14596
2023-02-08T09:54:27.944Z,15508
2023-02-08T09:55:27.956Z,16391
2023-02-08T09:56:27.957Z,16373
2023-02-08T09:57:27.949Z,15904
2023-02-08T09:58:27.979Z,16238
2023-02-08T09:59:27.962Z,16918
2023-02-08T10:00:27.973Z,16561
2023-02-08T10:01:27.951Z,16570
2023-02-08T10:02:27.951Z,17025
2023-02-08T10:03:27.996Z,17027
2023-02-08T10:04:27.934Z,16946
2023-02-08T10:05:27.950Z,16905
2023-02-08T10:06:27.964Z,16647
2023-02-08T10:07:27.952Z,16384
2023-02-08T10:08:34.858Z,16424
2023-02-08T10:09:27.937Z,16163
2023-02-08T10:10:27.938Z,16240
2023-02-08T10:11:27.948Z,16505
2023-02-08T10:12:27.957Z,16295
2023-02-08T10:13:40.738Z,16222
2023-02-08T10:14:27.939Z,15001
2023-02-08T10:15:27.935Z,16802
2023-02-08T10:16:27.996Z,16662
2023-02-08T10:17:27.951Z,16710
2023-02-08T10:18:27.974Z,16806
2023-02-08T10:19:27.948Z,17034
2023-02-08T10:20:27.946Z,16673
2023-02-08T10:21:27.939Z,16631
2023-02-08T10:22:27.982Z,16408
2023-02-08T10:23:27.938Z,16732
2023-02-08T10:24:27.935Z,16749
2023-02-08T10:25:27.937Z,16616
2023-02-08T10:26:27.987Z,16581
2023-02-08T10:27:27.947Z,16410
2023-02-08T10:28:28.056Z,15525
2023-02-08T10:29:27.971Z,16574
2023-02-08T10:30:27.972Z,16863
2023-02-08T10:31:27.987Z,16332
2023-02-08T10:32:27.946Z,11536
2023-02-08T10:33:27.957Z,17051
2023-02-08T10:34:27.950Z,17224
2023-02-08T10:35:27.935Z,11225
2023-02-08T10:36:28.038Z,18000
2023-02-08T10:37:27.964Z,16677
2023-02-08T10:38:37.114Z,18714
2023-02-08T10:39:27.960Z,18157
2023-02-08T10:40:27.935Z,17447
2023-02-08T10:41:27.965Z,17257
2023-02-08T10:42:28.042Z,17257
2023-02-08T10:43:27.970Z,18395
2023-02-08T10:44:27.949Z,18243
2023-02-08T10:45:27.953Z,15674
2023-02-08T10:46:27.954Z,16920
2023-02-08T10:47:27.958Z,16957
2023-02-08T10:48:27.955Z,16655
2023-02-08T10:49:27.987Z,17886
2023-02-08T10:50:30.135Z,17886
2023-02-08T10:51:27.947Z,16723
2023-02-08T10:52:27.967Z,11779
2023-02-08T10:53:27.963Z,18242
2023-02-08T10:54:27.960Z,8368
2023-02-08T10:55:27.965Z,7988
2023-02-08T10:56:27.967Z,18435
2023-02-08T10:57:27.954Z,17491
2023-02-08T10:58:27.974Z,10561
2023-02-08T10:59:27.957Z,17860
2023-02-08T11:00:27.960Z,17860
2023-02-08T11:01:28.088Z,18126
2023-02-08T11:02:27.966Z,12290
2023-02-08T11:03:27.950Z,18055
2023-02-08T11:04:27.983Z,18503
2023-02-08T11:05:27.957Z,18234
2023-02-08T11:06:27.949Z,17899
2023-02-08T11:07:28.033Z,17899
2023-02-08T11:08:27.987Z,17899
2023-02-08T11:09:27.949Z,17899
2023-02-08T11:10:27.945Z,17252
2023-02-08T11:11:27.947Z,17233
2023-02-08T11:12:27.958Z,17191
2023-02-08T11:13:27.963Z,17864
2023-02-08T11:14:40.942Z,18126
2023-02-08T11:15:27.958Z,17877
2023-02-08T11:16:28.005Z,18037
2023-02-08T11:17:27.944Z,18111
2023-02-08T11:18:27.960Z,17925
2023-02-08T11:19:27.957Z,18155
2023-02-08T11:20:27.931Z,17597
2023-02-08T11:21:27.939Z,17491
2023-02-08T11:22:27.956Z,17711
2023-02-08T11:23:27.945Z,17750
2023-02-08T11:24:27.937Z,17639
2023-02-08T11:25:27.933Z,17875
2023-02-08T11:26:27.940Z,18083
2023-02-08T11:27:27.952Z,17720
2023-02-08T11:28:27.961Z,18094
2023-02-08T11:29:27.935Z,18448
2023-02-08T11:30:27.974Z,19196
2023-02-08T11:31:27.998Z,13621
2023-02-08T11:32:27.943Z,17385
2023-02-08T11:33:27.942Z,19517
2023-02-08T11:34:27.932Z,19110
2023-02-08T11:35:27.938Z,18924
2023-02-08T11:36:27.940Z,18573
2023-02-08T11:37:27.961Z,18761
2023-02-08T11:38:27.931Z,18653
2023-02-08T11:39:27.944Z,17523
2023-02-08T11:40:27.933Z,17997
2023-02-08T11:41:27.983Z,17414
2023-02-08T11:42:27.977Z,18332
2023-02-08T11:43:27.953Z,18242
2023-02-08T11:44:27.935Z,18242
2023-02-08T11:45:27.937Z,18548
2023-02-08T11:46:27.942Z,18352
2023-02-08T11:47:27.948Z,18588
2023-02-08T11:48:27.937Z,18983
2023-02-08T11:49:27.933Z,18999
2023-02-08T11:50:27.966Z,18848
2023-02-08T11:51:27.946Z,18677
2023-02-08T11:52:27.980Z,18680
2023-02-08T11:53:28.035Z,19145
2023-02-08T11:54:27.945Z,19237
2023-02-08T11:55:27.957Z,19066
2023-02-08T11:56:27.971Z,18938
2023-02-08T11:57:28.004Z,19036
2023-02-08T11:58:27.952Z,18951
2023-02-08T11:59:27.954Z,18618
2023-02-08T12:00:27.939Z,18538
2023-02-08T12:01:27.949Z,17700
2023-02-08T12:02:27.991Z,17538
2023-02-08T12:03:28.073Z,18306
2023-02-08T12:04:27.959Z,18172
2023-02-08T12:05:27.950Z,18374
2023-02-08T12:06:27.950Z,18559
2023-02-08T12:07:27.960Z,18540
2023-02-08T12:08:27.955Z,18824
2023-02-08T12:09:27.936Z,18824
2023-02-08T12:10:27.933Z,18699
2023-02-08T12:11:27.962Z,18774
2023-02-08T12:12:27.966Z,18900
2023-02-08T12:13:27.964Z,18793
2023-02-08T12:14:28.001Z,18684
2023-02-08T12:15:28.032Z,18701
2023-02-08T12:16:28.003Z,18708
2023-02-08T12:17:27.973Z,18446
2023-02-08T12:18:27.962Z,18804
2023-02-08T12:19:27.952Z,18955
2023-02-08T12:20:27.970Z,18861
2023-02-08T12:21:27.957Z,18091
2023-02-08T12:22:27.948Z,18439
2023-02-08T12:23:27.932Z,18402
2023-02-08T12:24:27.960Z,18507
2023-02-08T12:25:27.958Z,18717
2023-02-08T12:26:27.953Z,18446
2023-02-08T12:27:27.971Z,18516
2023-02-08T12:28:27.967Z,18454
2023-02-08T12:29:38.370Z,18468
2023-02-08T12:30:27.933Z,19005
2023-02-08T12:31:28.182Z,19666
2023-02-08T12:32:27.966Z,19528
2023-02-08T12:33:27.960Z,18984
2023-02-08T12:34:27.939Z,19067
2023-02-08T12:35:41.382Z,19729
2023-02-08T12:36:27.932Z,17947
2023-02-08T12:37:27.953Z,18577
2023-02-08T12:38:27.946Z,18562
2023-02-08T12:39:27.945Z,18658
2023-02-08T12:40:27.962Z,17678
2023-02-08T12:41:27.936Z,17532
2023-02-08T12:42:27.987Z,17456
2023-02-08T12:43:27.937Z,17396
2023-02-08T12:44:27.936Z,17480
2023-02-08T12:45:27.935Z,17490
2023-02-08T12:46:27.956Z,17534
2023-02-08T12:47:27.944Z,17807
2023-02-08T12:48:27.937Z,17917
2023-02-08T12:49:27.961Z,18181
2023-02-08T12:50:27.935Z,18354
2023-02-08T12:51:27.933Z,17912
2023-02-08T12:52:27.952Z,17213
2023-02-08T12:53:27.938Z,17184
2023-02-08T12:54:27.933Z,16927
2023-02-08T12:55:27.929Z,17224
2023-02-08T12:56:27.932Z,14599
2023-02-08T12:57:29.570Z,12828
2023-02-08T12:58:27.953Z,9368
2023-02-08T12:59:27.947Z,7632
2023-02-08T13:00:27.935Z,8963
2023-02-08T13:01:27.977Z,9363
2023-02-08T13:02:27.967Z,8475
2023-02-08T13:03:28.953Z,8213
2023-02-08T13:04:27.936Z,10036
2023-02-08T13:05:27.962Z,7973
2023-02-08T13:06:27.943Z,7214
2023-02-08T13:07:27.965Z,7476
2023-02-08T13:08:27.948Z,6235
2023-02-08T13:09:29.225Z,6235
2023-02-08T13:10:27.972Z,5942
2023-02-08T13:11:28.052Z,6128
2023-02-08T13:12:27.985Z,6296
2023-02-08T13:13:27.958Z,6423
2023-02-08T13:14:27.946Z,6567
2023-02-08T13:15:30.931Z,6864
2023-02-08T13:16:28.089Z,6738
2023-02-08T13:17:27.997Z,6488
2023-02-08T13:18:27.955Z,6230
2023-02-08T13:19:27.949Z,6438
2023-02-08T13:20:29.210Z,6421
2023-02-08T13:21:27.937Z,6224
2023-02-08T13:22:27.957Z,6301
2023-02-08T13:23:27.957Z,6465
2023-02-08T13:24:27.948Z,6353
2023-02-08T13:25:27.943Z,5865
2023-02-08T13:26:28.056Z,5771
2023-02-08T13:27:27.953Z,5765
2023-02-08T13:28:28.067Z,5592
2023-02-08T13:29:28.334Z,5184
2023-02-08T13:30:27.971Z,4937
2023-02-08T13:31:28.089Z,4781
2023-02-08T13:32:27.965Z,4539
2023-02-08T13:33:27.952Z,4408
2023-02-08T13:34:27.949Z,4337
2023-02-08T13:35:27.975Z,4281
2023-02-08T13:36:28.026Z,4150
2023-02-08T13:37:30.275Z,4115
2023-02-08T13:38:28.231Z,4123
2023-02-08T13:39:27.933Z,4219
2023-02-08T13:40:28.262Z,4062
2023-02-08T13:41:27.952Z,3985
2023-02-08T13:42:27.963Z,3962
2023-02-08T13:43:35.468Z,4007
2023-02-08T13:44:27.949Z,3942
2023-02-08T13:45:27.945Z,3789
2023-02-08T13:46:28.013Z,3747
2023-02-08T13:47:27.975Z,3507
2023-02-08T13:48:27.934Z,3454